Harsens Island, Michigan
Current Conditions -  °F | °C
As of 5:55 PM on Saturday 25 Oct 2014 (Local Time) from KMTC Reporting Station
Clear Clear  
Wind Chill: 66°   Ceiling: Unl
Heat Index: 66°   Visibility: 10mi
Dew Point: 29°   Wind: 17mph
Humidity: 25%   Direction: 270°W
Pressure: 29.68"   Gusts: 25mph
Location:  42.6°N, 82.59°W
Report Text: KMTC 252155Z 27015G22KT 10SM CLR 19/M02 A2968 RMK PK WND 29027/53 SLP061 T01871018
Loading
Personal Weather Stations






























Interactive Weather Map
Tropical Storm Tracking
New forecast layout! Learn more

10-Day Weather Forecast

Advertisements
Track Severe Weather on mobile